Putney, VT (05346)

4:03 AM EDT on July 24, 2016 (GMT -0400)
Green Mountain Orchard | | Change Station

Elev 715 ft 42.99 °N, 72.54 °W | Updated 0 second ago

Overcast
Overcast
57.0 °F
Feels Like 57.0 °F
N
3.0
Wind Variable Wind from WSW
Gusts 3.0 mph

Today
High -- | Low -- °F
--% Chance of Precip.
Yesterday
High -- | Low -- °F
Precip. -- in
Pressure 30.01 in
Visibility 8.0 miles
Clouds Overcast 200 ft
Dew Point Not available.
Humidity Not available.
Rainfall 0.00 in
Snow Depth Not available.
5:33 AM 8:19 PM
Waning Gibbous, 78% visible
METAR KEEN 240756Z AUTO 32003KT 8SM OVC002 16/15 A2997 RMK AO2 SLP161 T01560150 PNO $
Pressure 30.01 in
Visibility 8.0 miles
Clouds Overcast 200 ft
Dew Point Not available.
Humidity Not available.
Rainfall 0.00 in
Snow Depth Not available.
5:33 AM 8:19 PM
Waning Gibbous, 78% visible
METAR KEEN 240756Z AUTO 32003KT 8SM OVC002 16/15 A2997 RMK AO2 SLP161 T01560150 PNO $

10-Day Weather Forecast

Almanac

Astronomy

Jul. 24, 2016 Rise Set
Actual Time
Civil Twilight
Nautical Twilight
Astronomical Twilight
Moon
Length of Visible Light
Length of Day
Tomorrow will be .
, % of the Moon is Illuminated

Today's Extremes

State Highs State Lows

Community

WunderPhotos

Upload Photos

1,927,041 photos uploaded!

WunderBlog® & News

Nearby

Air Quality

  Air Quality AQ Index Pollutant
Not available.

Snow Depth

Station Depth Elevation

Earthquake Activity

City Distance Mag. Time & Date
Minimum magnitude displayed is 2.5.

Coastal Water Temperatures

Place Temperature

Stations

Nearby Weather Stations

Station Location Temp. Windchill Dew Point Humidity Wind Precip. Elev Updated Type
                   

Watches & Warnings

There are currently no watches in effect.